createdAt,value
2022-12-17T00:02:28.867Z,23.03
2022-12-17T00:05:14.220Z,20.73
2022-12-17T00:07:59.796Z,21.13
2022-12-17T00:10:45.440Z,20.53
2022-12-17T00:13:38.205Z,20.47
2022-12-17T00:16:25.080Z,19.83
2022-12-17T00:19:12.356Z,19.90
2022-12-17T00:21:57.823Z,21.23
2022-12-17T00:24:43.392Z,21.07
2022-12-17T00:27:29.018Z,20.27
2022-12-17T00:30:14.537Z,20.07
2022-12-17T00:36:52.180Z,21.23
2022-12-17T00:39:38.174Z,21.57
2022-12-17T00:42:23.654Z,20.30
2022-12-17T00:45:09.173Z,20.40
2022-12-17T00:47:55.052Z,21.00
2022-12-17T00:50:42.277Z,20.33
2022-12-17T00:53:28.852Z,19.17
2022-12-17T00:56:14.475Z,20.83
2022-12-17T00:59:00.112Z,19.43
2022-12-17T01:01:45.779Z,21.20
2022-12-17T01:04:31.505Z,19.03
2022-12-17T01:07:17.021Z,20.07
2022-12-17T01:10:04.102Z,18.83
2022-12-17T01:12:49.720Z,20.10
2022-12-17T01:15:35.081Z,19.93
2022-12-17T01:18:20.897Z,19.33
2022-12-17T01:21:06.438Z,21.00
2022-12-17T01:23:51.949Z,20.57
2022-12-17T01:26:38.743Z,19.00
2022-12-17T01:29:24.135Z,19.93
2022-12-17T01:32:18.017Z,20.53
2022-12-17T01:35:03.622Z,20.47
2022-12-17T01:37:49.313Z,21.93
2022-12-17T01:40:34.828Z,21.67
2022-12-17T01:43:21.956Z,21.07
2022-12-17T01:46:08.662Z,21.40
2022-12-17T01:48:59.879Z,20.70
2022-12-17T01:51:46.277Z,22.17
2022-12-17T01:54:32.730Z,21.30
2022-12-17T01:57:27.887Z,21.80
2022-12-17T02:00:18.918Z,21.27
2022-12-17T02:03:04.600Z,20.53
2022-12-17T02:05:55.318Z,23.50
2022-12-17T02:08:49.848Z,21.17
2022-12-17T02:11:43.025Z,21.37
2022-12-17T02:14:34.763Z,21.47
2022-12-17T02:17:24.216Z,20.07
2022-12-17T02:20:22.329Z,21.13
2022-12-17T02:23:18.274Z,20.97
2022-12-17T02:26:11.218Z,21.70
2022-12-17T02:29:01.851Z,21.10
2022-12-17T02:31:49.134Z,20.80
2022-12-17T02:34:34.939Z,19.47
2022-12-17T02:37:20.321Z,20.27
2022-12-17T02:40:02.332Z,20.83
2022-12-17T02:42:49.396Z,18.73
2022-12-17T02:45:37.938Z,20.17
2022-12-17T02:48:25.845Z,21.63
2022-12-17T02:51:11.839Z,21.00
2022-12-17T02:54:01.897Z,19.53
2022-12-17T02:56:47.751Z,20.27
2022-12-17T02:59:33.463Z,19.47
2022-12-17T03:07:40.978Z,22.20
2022-12-17T03:14:38.775Z,18.47
2022-12-17T03:17:24.347Z,19.93
2022-12-17T03:20:10.028Z,20.23
2022-12-17T03:22:56.724Z,20.10
2022-12-17T03:25:42.292Z,17.13
2022-12-17T03:28:30.069Z,19.33
2022-12-17T03:31:16.971Z,18.50
2022-12-17T03:34:02.802Z,18.60
2022-12-17T03:36:48.414Z,21.00
2022-12-17T03:39:35.068Z,19.87
2022-12-17T03:42:20.532Z,20.00
2022-12-17T03:45:06.046Z,20.30
2022-12-17T03:47:51.587Z,20.97
2022-12-17T03:50:37.056Z,20.77
2022-12-17T03:53:23.973Z,19.70
2022-12-17T03:56:10.737Z,20.10
2022-12-17T03:58:56.330Z,22.20
2022-12-17T04:01:50.291Z,19.60
2022-12-17T04:04:47.305Z,20.57
2022-12-17T04:07:32.922Z,20.00
2022-12-17T04:10:18.494Z,22.20
2022-12-17T04:13:05.311Z,20.93
2022-12-17T04:15:51.006Z,21.83
2022-12-17T04:18:36.319Z,23.60
2022-12-17T04:21:21.908Z,23.93
2022-12-17T04:24:07.353Z,24.90
2022-12-17T04:26:53.154Z,24.23
2022-12-17T04:29:42.663Z,24.10
2022-12-17T04:32:32.310Z,21.67
2022-12-17T04:35:20.450Z,19.70
2022-12-17T04:38:05.993Z,21.03
2022-12-17T04:40:51.566Z,21.43
2022-12-17T04:43:37.049Z,22.10
2022-12-17T04:46:24.613Z,19.90
2022-12-17T04:49:10.281Z,20.80
2022-12-17T04:51:55.772Z,20.47
2022-12-17T04:54:41.356Z,20.77
2022-12-17T04:57:26.902Z,20.20
2022-12-17T05:00:12.569Z,20.43
2022-12-17T05:02:59.444Z,21.47
2022-12-17T05:05:44.726Z,21.60
2022-12-17T05:08:30.396Z,20.13
2022-12-17T05:19:24.954Z,19.93
2022-12-17T05:22:15.379Z,20.77
2022-12-17T05:25:01.040Z,22.17
2022-12-17T05:27:46.719Z,21.00
2022-12-17T05:30:32.544Z,21.67
2022-12-17T05:33:18.613Z,20.97
2022-12-17T05:36:06.539Z,20.13
2022-12-17T05:38:53.211Z,21.37
2022-12-17T05:41:38.985Z,21.87
2022-12-17T05:44:24.269Z,20.93
2022-12-17T05:47:09.837Z,20.97
2022-12-17T05:49:56.450Z,20.43
2022-12-17T05:52:42.166Z,20.87
2022-12-17T05:55:29.056Z,23.33
2022-12-17T05:58:20.788Z,23.13
2022-12-17T06:01:06.338Z,22.50
2022-12-17T06:03:51.949Z,21.80
2022-12-17T06:06:37.483Z,20.23
2022-12-17T06:09:22.861Z,21.03
2022-12-17T06:12:09.548Z,20.40
2022-12-17T06:14:55.127Z,21.90
2022-12-17T06:17:40.724Z,20.40
2022-12-17T06:20:38.921Z,19.80
2022-12-17T06:23:28.125Z,19.47
2022-12-17T06:26:14.608Z,19.67
2022-12-17T06:29:02.048Z,18.40
2022-12-17T06:31:48.169Z,19.77
2022-12-17T06:34:33.912Z,20.53
2022-12-17T06:37:19.573Z,20.80
2022-12-17T06:40:05.047Z,20.93
2022-12-17T06:42:58.923Z,20.30
2022-12-17T06:45:45.540Z,21.40
2022-12-17T06:48:31.232Z,22.07
2022-12-17T06:51:16.801Z,22.80
2022-12-17T06:54:01.407Z,24.83
2022-12-17T06:56:47.100Z,24.47
2022-12-17T06:59:32.506Z,24.03
2022-12-17T07:02:19.231Z,24.53
2022-12-17T07:05:04.717Z,23.87
2022-12-17T07:07:50.096Z,23.10
2022-12-17T07:10:35.603Z,24.90
2022-12-17T07:13:25.033Z,26.17
2022-12-17T07:16:10.670Z,24.77
2022-12-17T07:18:58.148Z,26.60
2022-12-17T07:21:43.626Z,24.67
2022-12-17T07:24:29.270Z,26.27
2022-12-17T07:27:15.021Z,23.83
2022-12-17T07:30:00.455Z,25.33
2022-12-17T07:32:46.242Z,24.63
2022-12-17T07:35:33.429Z,24.63
2022-12-17T07:38:28.267Z,25.07
2022-12-17T07:41:13.748Z,23.83
2022-12-17T07:43:59.399Z,22.90
2022-12-17T07:46:44.958Z,22.27
2022-12-17T07:49:30.594Z,24.30
2022-12-17T07:52:17.155Z,23.03
2022-12-17T07:55:02.803Z,22.17
2022-12-17T07:58:03.014Z,22.73
2022-12-17T08:00:49.545Z,23.60
2022-12-17T08:03:35.645Z,22.00
2022-12-17T08:06:21.572Z,23.17
2022-12-17T08:09:08.279Z,22.67
2022-12-17T08:11:53.821Z,22.17
2022-12-17T08:14:39.485Z,21.03
2022-12-17T08:17:25.033Z,21.87
2022-12-17T08:20:10.595Z,22.27
2022-12-17T08:22:56.112Z,21.30
2022-12-17T08:25:42.725Z,23.17
2022-12-17T08:28:49.447Z,23.10
2022-12-17T08:31:33.564Z,22.40
2022-12-17T08:34:18.985Z,23.23
2022-12-17T08:37:04.600Z,23.93
2022-12-17T08:39:50.189Z,24.00
2022-12-17T08:42:36.831Z,22.07
2022-12-17T08:45:22.938Z,22.70
2022-12-17T08:48:08.326Z,22.90
2022-12-17T08:50:53.949Z,21.40
2022-12-17T08:53:39.575Z,20.80
2022-12-17T08:56:25.866Z,20.40
2022-12-17T08:59:12.896Z,21.50
2022-12-17T09:01:58.673Z,20.23
2022-12-17T09:04:44.199Z,22.43
2022-12-17T09:07:29.853Z,21.67
2022-12-17T09:10:15.510Z,19.83
2022-12-17T09:13:04.700Z,20.10
2022-12-17T09:15:52.179Z,20.13
2022-12-17T09:18:38.557Z,20.53
2022-12-17T09:21:24.615Z,19.27
2022-12-17T09:24:10.143Z,20.93
2022-12-17T09:26:55.353Z,22.27
2022-12-17T09:29:41.035Z,21.77
2022-12-17T09:32:27.789Z,20.67
2022-12-17T09:35:13.383Z,20.90
2022-12-17T09:38:01.173Z,23.00
2022-12-17T09:40:59.952Z,19.63
2022-12-17T09:43:55.403Z,20.33
2022-12-17T09:46:45.501Z,21.47
2022-12-17T09:49:37.208Z,20.20
2022-12-17T09:52:32.883Z,20.23
2022-12-17T09:55:18.956Z,20.37
2022-12-17T09:58:05.503Z,19.53
2022-12-17T10:01:01.033Z,21.83
2022-12-17T10:03:48.532Z,18.90
2022-12-17T10:06:39.260Z,21.67
2022-12-17T10:09:31.385Z,23.30
2022-12-17T10:12:21.497Z,19.30
2022-12-17T10:15:06.910Z,20.47
2022-12-17T10:17:52.442Z,21.90
2022-12-17T10:20:51.505Z,20.43
2022-12-17T10:23:48.913Z,20.43
2022-12-17T10:26:51.258Z,20.83
2022-12-17T10:29:50.535Z,20.27
2022-12-17T10:32:49.012Z,21.73
2022-12-17T10:35:38.390Z,20.10
2022-12-17T10:38:31.163Z,19.57
2022-12-17T10:41:23.491Z,20.33
2022-12-17T10:44:09.012Z,21.63
2022-12-17T10:46:54.389Z,20.90
2022-12-17T10:49:42.191Z,21.53
2022-12-17T10:52:56.818Z,20.47
2022-12-17T10:55:45.773Z,22.47
2022-12-17T10:58:35.315Z,22.03
2022-12-17T11:01:21.936Z,22.13
2022-12-17T11:04:10.340Z,21.30
2022-12-17T11:06:59.831Z,22.17
2022-12-17T11:10:03.784Z,21.07
2022-12-17T11:12:58.093Z,21.23
2022-12-17T11:15:49.963Z,19.07
2022-12-17T11:18:39.418Z,22.10
2022-12-17T11:21:29.509Z,20.43
2022-12-17T11:24:22.391Z,19.57
2022-12-17T11:27:14.424Z,22.63
2022-12-17T11:29:59.952Z,20.70
2022-12-17T11:33:13.869Z,20.93
2022-12-17T11:36:06.430Z,23.07
2022-12-17T11:38:57.065Z,23.03
2022-12-17T11:41:55.395Z,21.20
2022-12-17T11:45:04.004Z,21.30
2022-12-17T11:48:00.623Z,21.73
2022-12-17T11:50:55.254Z,21.23
2022-12-17T11:54:01.437Z,22.17
2022-12-17T11:56:53.633Z,21.93
2022-12-17T11:59:52.732Z,22.03
2022-12-17T12:02:54.766Z,23.20
2022-12-17T12:05:49.767Z,22.10
2022-12-17T12:08:43.423Z,23.30
2022-12-17T12:11:34.608Z,23.37
2022-12-17T12:14:27.601Z,21.93
2022-12-17T12:17:20.659Z,24.30
2022-12-17T12:20:14.292Z,22.33
2022-12-17T12:23:07.795Z,22.60
2022-12-17T12:25:59.156Z,22.20
2022-12-17T12:28:57.953Z,23.23
2022-12-17T12:31:50.280Z,22.03
2022-12-17T12:34:39.525Z,23.90
2022-12-17T12:37:26.535Z,20.43
2022-12-17T12:40:29.156Z,21.10
2022-12-17T12:43:33.601Z,22.70
2022-12-17T12:46:23.706Z,21.57
2022-12-17T12:49:16.038Z,22.40
2022-12-17T12:52:02.463Z,21.73
2022-12-17T12:54:50.560Z,22.13
2022-12-17T12:57:51.312Z,21.13
2022-12-17T13:00:45.558Z,21.60
2022-12-17T13:03:42.872Z,22.37
2022-12-17T13:06:11.813Z,23.23
2022-12-17T13:08:40.885Z,25.20
2022-12-17T13:11:29.895Z,22.57
2022-12-17T13:14:05.915Z,22.47
2022-12-17T13:16:50.146Z,22.93
2022-12-17T13:19:34.444Z,20.63
2022-12-17T13:22:15.686Z,22.87
2022-12-17T13:24:50.212Z,20.70
2022-12-17T13:27:31.068Z,22.83
2022-12-17T13:29:59.639Z,23.03
2022-12-17T13:32:32.440Z,23.00
2022-12-17T13:35:13.987Z,22.63
2022-12-17T13:37:51.249Z,24.00
2022-12-17T13:40:30.410Z,21.30
2022-12-17T13:42:58.651Z,21.37
2022-12-17T13:45:27.945Z,22.80
2022-12-17T13:47:59.125Z,22.30
2022-12-17T13:50:36.774Z,21.73
2022-12-17T13:53:12.060Z,22.87
2022-12-17T13:55:40.193Z,21.43
2022-12-17T13:58:21.344Z,20.97
2022-12-17T14:00:49.481Z,20.93
2022-12-17T14:03:37.026Z,21.03
2022-12-17T14:06:11.840Z,21.40
2022-12-17T14:08:40.908Z,20.07
2022-12-17T14:11:26.648Z,20.27
2022-12-17T14:13:55.107Z,21.17
2022-12-17T14:16:23.957Z,20.40
2022-12-17T14:18:57.134Z,21.60
2022-12-17T14:21:26.333Z,21.00
2022-12-17T14:23:56.032Z,21.50
2022-12-17T14:26:24.094Z,19.63
2022-12-17T14:28:55.136Z,21.33
2022-12-17T14:31:27.264Z,19.57
2022-12-17T14:34:07.746Z,21.13
2022-12-17T14:36:38.341Z,22.13
2022-12-17T14:39:18.054Z,23.83
2022-12-17T14:42:12.131Z,25.60
2022-12-17T14:44:51.115Z,25.07
2022-12-17T14:47:21.999Z,20.60
2022-12-17T14:50:04.419Z,21.97
2022-12-17T14:52:38.174Z,21.60
2022-12-17T14:55:34.169Z,21.23
2022-12-17T14:58:20.970Z,22.93
2022-12-17T15:00:52.788Z,23.47
2022-12-17T15:03:24.069Z,23.47
2022-12-17T15:05:56.993Z,24.77
2022-12-17T15:08:25.259Z,20.43
2022-12-17T15:10:53.516Z,21.97
2022-12-17T15:13:21.891Z,22.30
2022-12-17T15:15:49.974Z,21.07
2022-12-17T15:18:18.196Z,22.13
2022-12-17T15:20:46.660Z,22.20
2022-12-17T15:23:21.317Z,23.30
2022-12-17T15:25:51.416Z,24.10
2022-12-17T15:28:20.772Z,21.57
2022-12-17T15:30:50.285Z,24.20
2022-12-17T15:33:18.428Z,24.30
2022-12-17T15:35:46.523Z,24.17
2022-12-17T15:38:14.659Z,25.47
2022-12-17T15:40:44.172Z,24.13
2022-12-17T15:43:11.877Z,24.03
2022-12-17T15:45:41.138Z,23.93
2022-12-17T15:48:09.715Z,24.10
2022-12-17T15:50:38.306Z,23.27
2022-12-17T15:53:06.700Z,25.27
2022-12-17T15:55:34.895Z,23.67
2022-12-17T15:58:04.581Z,22.93
2022-12-17T16:00:32.740Z,22.83
2022-12-17T16:03:00.964Z,23.93
2022-12-17T16:05:29.302Z,23.53
2022-12-17T16:07:59.132Z,22.87
2022-12-17T16:10:27.415Z,23.50
2022-12-17T16:12:55.422Z,22.10
2022-12-17T16:15:24.866Z,21.23
2022-12-17T16:17:53.078Z,21.47
2022-12-17T16:20:21.289Z,22.87
2022-12-17T16:22:49.766Z,21.87
2022-12-17T16:25:17.920Z,26.03
2022-12-17T16:27:45.996Z,23.93
2022-12-17T16:30:15.164Z,22.40
2022-12-17T16:32:44.679Z,20.37
2022-12-17T16:35:14.140Z,22.17
2022-12-17T16:37:42.180Z,23.13
2022-12-17T16:40:11.931Z,22.60
2022-12-17T16:42:39.987Z,22.47
2022-12-17T16:45:09.327Z,21.87
2022-12-17T16:47:37.381Z,23.40
2022-12-17T16:50:07.471Z,20.80
2022-12-17T16:52:36.019Z,22.80
2022-12-17T16:55:04.046Z,21.37
2022-12-17T16:57:32.111Z,18.70
2022-12-17T17:00:00.126Z,22.33
2022-12-17T17:02:28.280Z,21.53
2022-12-17T17:04:56.435Z,20.70
2022-12-17T17:07:25.822Z,20.50
2022-12-17T17:09:53.894Z,21.77
2022-12-17T17:12:21.940Z,21.43
2022-12-17T17:14:49.993Z,22.37
2022-12-17T17:17:17.993Z,20.33
2022-12-17T17:19:45.983Z,20.50
2022-12-17T17:22:14.088Z,20.30
2022-12-17T17:24:43.556Z,21.80
2022-12-17T17:27:11.796Z,22.47
2022-12-17T17:29:39.816Z,22.23
2022-12-17T17:32:10.912Z,20.53
2022-12-17T17:34:40.112Z,22.60
2022-12-17T17:37:08.269Z,23.17
2022-12-17T17:39:36.322Z,24.03
2022-12-17T17:42:06.257Z,32.03
2022-12-17T17:44:34.337Z,27.17
2022-12-17T17:47:02.681Z,21.67
2022-12-17T17:49:30.757Z,20.83
2022-12-17T17:52:14.135Z,20.17
2022-12-17T17:54:42.473Z,21.43
2022-12-17T17:57:12.101Z,22.50
2022-12-17T17:59:40.429Z,20.73
2022-12-17T18:02:10.764Z,21.33
2022-12-17T18:04:39.926Z,23.90
2022-12-17T18:09:56.521Z,21.13
2022-12-17T18:12:43.319Z,23.60
2022-12-17T18:15:14.741Z,20.83
2022-12-17T18:17:44.224Z,20.80
2022-12-17T18:20:12.940Z,20.97
2022-12-17T18:22:41.300Z,21.03
2022-12-17T18:25:10.611Z,19.63
2022-12-17T18:27:40.351Z,20.93
2022-12-17T18:30:09.544Z,20.40
2022-12-17T18:32:37.580Z,20.63
2022-12-17T18:35:06.392Z,20.50
2022-12-17T18:37:34.523Z,19.83
2022-12-17T18:40:02.954Z,18.87
2022-12-17T18:42:48.673Z,19.70
2022-12-17T18:45:18.351Z,20.43
2022-12-17T18:47:46.608Z,20.83
2022-12-17T18:50:14.852Z,20.73
2022-12-17T18:52:43.012Z,21.27
2022-12-17T18:55:11.163Z,18.20
2022-12-17T18:57:39.386Z,18.67
2022-12-17T19:00:09.021Z,19.63
2022-12-17T19:02:39.673Z,22.03
2022-12-17T19:05:08.419Z,18.93
2022-12-17T19:07:36.733Z,19.23
2022-12-17T19:10:05.529Z,19.30
2022-12-17T19:12:33.632Z,17.73
2022-12-17T19:15:01.672Z,16.60
2022-12-17T19:17:29.741Z,18.80
2022-12-17T19:19:59.245Z,15.57
2022-12-17T19:22:27.382Z,18.23
2022-12-17T19:24:55.538Z,18.47
2022-12-17T19:27:23.816Z,18.70
2022-12-17T19:29:52.009Z,17.77
2022-12-17T19:32:20.132Z,18.33
2022-12-17T19:34:48.237Z,17.83
2022-12-17T19:37:17.708Z,19.40
2022-12-17T19:39:46.077Z,19.57
2022-12-17T19:42:24.927Z,17.27
2022-12-17T19:44:54.141Z,18.30
2022-12-17T19:47:23.526Z,16.90
2022-12-17T19:49:51.640Z,17.03
2022-12-17T19:52:21.079Z,16.87
2022-12-17T19:54:49.754Z,18.43
2022-12-17T19:57:17.949Z,17.00
2022-12-17T19:59:46.024Z,16.73
2022-12-17T20:02:15.764Z,15.33
2022-12-17T20:04:44.855Z,15.03
2022-12-17T20:07:13.488Z,15.37
2022-12-17T20:09:44.666Z,15.90
2022-12-17T20:12:13.326Z,17.63
2022-12-17T20:14:41.585Z,17.97
2022-12-17T20:17:10.527Z,17.10
2022-12-17T20:19:38.776Z,16.77
2022-12-17T20:22:07.632Z,16.63
2022-12-17T20:24:37.315Z,18.17
2022-12-17T20:27:07.275Z,18.90
2022-12-17T20:29:35.851Z,19.50
2022-12-17T20:32:04.092Z,19.10
2022-12-17T20:34:32.674Z,19.00
2022-12-17T20:37:00.741Z,18.53
2022-12-17T20:39:29.075Z,19.17
2022-12-17T20:41:57.821Z,18.83
2022-12-17T20:44:27.312Z,18.90
2022-12-17T20:46:55.646Z,20.87
2022-12-17T20:49:23.742Z,18.67
2022-12-17T20:51:51.968Z,20.00
2022-12-17T20:54:20.112Z,20.07
2022-12-17T20:56:48.489Z,20.73
2022-12-17T20:59:18.311Z,21.13
2022-12-17T21:01:54.288Z,19.80
2022-12-17T21:04:24.362Z,20.60
2022-12-17T21:06:53.084Z,21.53
2022-12-17T21:09:22.637Z,20.63
2022-12-17T21:11:51.040Z,19.47
2022-12-17T21:14:20.443Z,18.97
2022-12-17T21:16:50.103Z,19.23
2022-12-17T21:19:22.198Z,19.17
2022-12-17T21:21:50.536Z,18.43
2022-12-17T21:24:18.898Z,17.27
2022-12-17T21:26:48.203Z,18.80
2022-12-17T21:29:17.982Z,18.97
2022-12-17T21:31:48.035Z,18.63
2022-12-17T21:34:21.491Z,18.13
2022-12-17T21:36:49.915Z,19.50
2022-12-17T21:39:19.203Z,19.30
2022-12-17T21:42:09.067Z,19.23
2022-12-17T21:44:37.524Z,18.23
2022-12-17T21:47:05.893Z,19.93
2022-12-17T21:49:35.306Z,20.00
2022-12-17T21:52:03.355Z,19.63
2022-12-17T21:54:31.615Z,17.83
2022-12-17T21:56:59.648Z,18.53
2022-12-17T22:00:04.970Z,20.20
2022-12-17T22:02:33.139Z,18.83
2022-12-17T22:05:03.652Z,18.87
2022-12-17T22:07:40.089Z,17.23
2022-12-17T22:10:31.068Z,21.10
2022-12-17T22:13:20.101Z,22.43
2022-12-17T22:15:48.703Z,19.70
2022-12-17T22:18:16.910Z,20.10
2022-12-17T22:20:46.330Z,20.37
2022-12-17T22:23:14.384Z,21.33
2022-12-17T22:25:42.579Z,20.97
2022-12-17T22:28:12.055Z,20.50
2022-12-17T22:30:59.239Z,20.93
2022-12-17T22:33:44.877Z,20.47
2022-12-17T22:39:00.356Z,21.43
2022-12-17T22:43:00.826Z,22.37
2022-12-17T22:44:35.015Z,21.60
2022-12-17T22:45:08.415Z,20.10
2022-12-17T22:47:38.156Z,21.00
2022-12-17T22:50:06.937Z,22.37
2022-12-17T22:52:36.988Z,18.80
2022-12-17T22:55:06.194Z,19.37
2022-12-17T22:57:37.952Z,19.10
2022-12-17T23:00:11.665Z,19.17
2022-12-17T23:02:39.806Z,17.87
2022-12-17T23:05:08.296Z,18.00
2022-12-17T23:07:37.676Z,18.87
2022-12-17T23:10:06.368Z,19.27
2022-12-17T23:12:52.563Z,19.60
2022-12-17T23:15:23.684Z,16.10
2022-12-17T23:17:53.538Z,16.93
2022-12-17T23:20:21.783Z,18.23
2022-12-17T23:22:51.311Z,17.50
2022-12-17T23:25:19.492Z,16.83
2022-12-17T23:27:48.212Z,17.03
2022-12-17T23:30:17.996Z,18.33
2022-12-17T23:32:46.187Z,17.73
2022-12-17T23:35:15.124Z,17.67
2022-12-17T23:37:43.789Z,17.27
2022-12-17T23:40:14.309Z,15.93
2022-12-17T23:42:42.640Z,17.30
2022-12-17T23:45:12.037Z,18.73
2022-12-17T23:47:41.275Z,18.13
2022-12-17T23:50:12.117Z,17.83
2022-12-17T23:52:40.341Z,17.60
2022-12-17T23:55:09.326Z,16.80
2022-12-17T23:57:38.956Z,16.60
